Details From PHTO - Hilo Intl
To PHOG - Kahului
Flight Number -
Tags Generated
Created
Modified
Stats Distance 105 nm / 195 km
Max Altitude 0 ft / 0 m
Waypoints 2
Social Downloads 2
Likes 0
Share VATSIM

Download

Looking for another format? Having issues loading an existing format? Contact us
Advertisement - Login to hide

Notes

Generated

Route

PHTO PHOG

ID Type Via Altitude Latitude Longitude Leg Dist Tot Dist Heading (true) Name
O PHTO APT - 0 ft / 0 m 19.71251˚ -155.06242˚ - 0 nm - -
O PHOG APT - 0 ft / 0 m 20.89802˚ -156.43710˚ 105 nm 105 nm 313° / 312° -

Altitude Profile

Advertisement - Login to hide

PHTO

Details ICAO PHTO (ITO)
Name Hilo Intl
Region USA (Hawaii)
Timezone Pacific/Honolulu (UTC-10.0)
Stats Elevation 38 ft / 12 m (AMSL)
Location 19.719847° -155.050388°
Runways 2
Magnetic Variation 9.489° E

METAR

PHTO 142053Z 01015G25KT 10SM SCT033 BKN041 OVC060 23/16 A3005

Decode

TAF

PHTO 141720Z 1418/1518 34011KT P6SM -SHRA SCT020 BKN035 FM142000 36018G25KT P6SM VCSH SCT025 BKN040 FM150400 35015KT P6SM VCSH SCT020 BKN040

Decode

Departure Runways

ID Width Length Bearing (true) Bearing (mag) Surface Threshold Offset Overrun Length
03 151 ft / 46 m 5,630 ft / 1,716 m 40.57° 31.08° Asphalt 384 ft / 117 m 0 ft / 0 m
08 151 ft / 46 m 9,810 ft / 2,990 m 90.04° 80.55° Asphalt 0 ft / 0 m 1,152 ft / 351 m
21 151 ft / 46 m 5,630 ft / 1,716 m 220.57° 211.08° Asphalt 0 ft / 0 m 0 ft / 0 m
26 151 ft / 46 m 9,810 ft / 2,990 m 270.05° 260.56° Asphalt 0 ft / 0 m 197 ft / 60 m

PHOG

Details ICAO PHOG (OGG)
Name Kahului
Region USA (Hawaii)
Timezone Pacific/Honolulu (UTC-10.0)
Stats Elevation 54 ft / 16 m (AMSL)
Location 20.898975° -156.430460°
Runways 2
Magnetic Variation 9.529° E

METAR

PHOG 142054Z 04021G25KT 10SM SCT035 SCT055 26/16 A3008

Decode

TAF

TAF PHOG 141720Z 1418/1518 03018KT P6SM SCT030 SCT050 FM142000 03024G32KT P6SM VCSH FEW025 BKN040 FM150600 04017KT P6SM VCSH SCT025 BKN040 AMD LTD TO VIS AND WIND 1509/1516

Decode

Destination Runways

ID Width Length Bearing (true) Bearing (mag) Surface Threshold Offset Overrun Length
02 150 ft / 46 m 7,013 ft / 2,138 m 34.81° 25.28° Asphalt 0 ft / 0 m 0 ft / 0 m
05 150 ft / 46 m 4,989 ft / 1,521 m 64.91° 55.38° Asphalt 0 ft / 0 m 0 ft / 0 m
20 150 ft / 46 m 7,013 ft / 2,138 m 214.81° 205.28° Asphalt 0 ft / 0 m 0 ft / 0 m
23 150 ft / 46 m 4,989 ft / 1,521 m 244.91° 235.38° Asphalt 0 ft / 0 m 0 ft / 0 m

Approach Navaids

Runway Type Ident Frequency Range Bearing (true) Bearing (mag) Slope Elevation
02 Localiser IOGG 110.10 MHz 18 nm / 33 km 34.81° 25.28° - 46 ft / 14 m (AMSL)
02 Glidescope IOGG 110.10 MHz 10 nm / 19 km 34.81° 25.28° 3.00° 46 ft / 14 m (AMSL)
02 DME IOGG 110.10 MHz 18 nm / 33 km - - - 46 ft / 14 m (AMSL)

Popular Alternatives